createdAt,value
2018-08-22T00:00:47.104Z,74.90
2018-08-22T00:06:12.522Z,75.30
2018-08-22T00:08:44.778Z,75.50
2018-08-22T00:11:13.702Z,75.60
2018-08-22T00:13:42.655Z,76.00
2018-08-22T00:16:10.815Z,76.20
2018-08-22T00:18:42.487Z,76.30
2018-08-22T00:21:17.562Z,76.60
2018-08-22T00:23:45.747Z,76.80
2018-08-22T00:26:13.947Z,76.90
2018-08-22T00:31:54.626Z,77.00
2018-08-22T00:34:22.799Z,77.10
2018-08-22T00:36:55.675Z,77.20
2018-08-22T00:39:23.847Z,77.50
2018-08-22T00:41:52.004Z,77.60
2018-08-22T00:44:20.178Z,77.80
2018-08-22T00:46:48.350Z,77.90
2018-08-22T00:49:17.751Z,78.00
2018-08-22T00:51:45.972Z,78.00
2018-08-22T00:54:35.670Z,78.70
2018-08-22T00:57:03.852Z,78.10
2018-08-22T00:59:32.050Z,78.20
2018-08-22T01:02:00.222Z,78.30
2018-08-22T01:04:28.374Z,78.10
2018-08-22T01:09:36.003Z,77.80
2018-08-22T01:12:04.178Z,77.60
2018-08-22T01:14:32.362Z,77.20
2018-08-22T01:17:01.932Z,77.10
2018-08-22T01:19:54.887Z,76.90
2018-08-22T01:22:23.059Z,76.60
2018-08-22T01:30:38.244Z,75.80
2018-08-22T01:33:06.408Z,75.80
2018-08-22T01:35:51.947Z,75.80
2018-08-22T01:41:13.188Z,75.80
2018-08-22T01:43:41.369Z,75.80
2018-08-22T01:49:02.088Z,75.90
2018-08-22T01:54:23.020Z,76.90
2018-08-22T02:02:36.669Z,76.60
2018-08-22T02:13:47.190Z,77.50
2018-08-22T02:25:27.872Z,78.30
2018-08-22T02:27:58.179Z,78.40
2018-08-22T02:30:26.360Z,78.70
2018-08-22T02:32:54.529Z,78.70
2018-08-22T02:41:14.860Z,79.00
2018-08-22T02:49:29.323Z,79.30
2018-08-22T02:51:57.475Z,79.50
2018-08-22T02:54:25.663Z,79.60
2018-08-22T02:57:10.523Z,79.70
2018-08-22T02:59:38.690Z,79.80
2018-08-22T03:02:06.852Z,79.90
2018-08-22T03:04:35.046Z,80.00
2018-08-22T03:07:03.210Z,80.20
2018-08-22T03:09:35.687Z,80.40
2018-08-22T03:12:22.843Z,80.40
2018-08-22T03:20:41.111Z,80.70
2018-08-22T03:23:09.282Z,80.80
2018-08-22T03:25:37.463Z,80.80
2018-08-22T03:28:05.646Z,80.90
2018-08-22T03:30:33.836Z,81.00
2018-08-22T03:33:20.676Z,80.90
2018-08-22T03:35:48.872Z,80.90
2018-08-22T03:38:17.057Z,81.10
2018-08-22T03:43:41.158Z,81.20
2018-08-22T03:46:09.348Z,81.30
2018-08-22T03:48:37.527Z,81.20
2018-08-22T03:51:05.733Z,81.30
2018-08-22T03:53:33.907Z,81.40
2018-08-22T03:56:02.143Z,81.50
2018-08-22T04:01:23.287Z,81.60
2018-08-22T04:06:44.307Z,81.70
2018-08-22T04:12:05.203Z,81.90
2018-08-22T04:14:33.380Z,82.00
2018-08-22T04:17:01.608Z,82.10
2018-08-22T04:19:29.789Z,82.10
2018-08-22T04:30:44.630Z,82.50
2018-08-22T04:33:12.823Z,82.60
2018-08-22T04:35:41.029Z,82.80
2018-08-22T04:38:09.206Z,82.90
2018-08-22T04:40:57.673Z,83.00
2018-08-22T04:43:25.839Z,83.00
2018-08-22T04:45:57.978Z,83.10
2018-08-22T04:48:26.142Z,83.10
2018-08-22T04:50:54.351Z,83.30
2018-08-22T04:53:22.530Z,83.30
2018-08-22T04:55:50.720Z,83.40
2018-08-22T04:58:18.896Z,83.50
2018-08-22T05:07:10.947Z,83.80
2018-08-22T05:09:39.120Z,83.80
2018-08-22T05:12:07.324Z,83.90
2018-08-22T05:14:38.134Z,84.00
2018-08-22T05:17:06.357Z,84.10
2018-08-22T05:19:55.291Z,84.20
2018-08-22T05:22:23.488Z,84.20
2018-08-22T05:25:01.681Z,84.50
2018-08-22T05:30:27.387Z,84.80
2018-08-22T05:32:55.592Z,84.80
2018-08-22T05:35:23.762Z,85.00
2018-08-22T05:37:51.998Z,85.00
2018-08-22T05:40:22.461Z,85.30
2018-08-22T05:42:51.569Z,85.50
2018-08-22T05:45:21.544Z,85.70
2018-08-22T05:48:16.472Z,85.80
2018-08-22T05:54:01.300Z,86.50
2018-08-22T05:56:29.526Z,86.50
2018-08-22T05:58:57.688Z,86.60
2018-08-22T06:04:18.498Z,86.80
2018-08-22T06:09:31.761Z,86.90
2018-08-22T06:11:59.971Z,87.10
2018-08-22T06:17:44.033Z,87.40
2018-08-22T06:20:12.196Z,87.50
2018-08-22T06:29:03.678Z,88.10
2018-08-22T06:31:31.894Z,88.20
2018-08-22T06:34:00.120Z,88.50
2018-08-22T06:36:28.304Z,88.60
2018-08-22T06:38:56.499Z,88.40
2018-08-22T06:41:24.703Z,88.10
2018-08-22T06:43:52.863Z,87.70
2018-08-22T06:46:21.045Z,87.30
2018-08-22T06:48:49.255Z,86.90
2018-08-22T06:51:17.471Z,86.80
2018-08-22T06:54:02.292Z,86.70
2018-08-22T06:56:30.495Z,86.80
2018-08-22T06:58:58.716Z,86.90
2018-08-22T07:07:11.988Z,87.10
2018-08-22T07:09:40.164Z,87.20
2018-08-22T07:12:08.375Z,87.20
2018-08-22T07:17:30.048Z,87.30
2018-08-22T07:19:58.209Z,87.50
2018-08-22T07:25:26.069Z,87.70
2018-08-22T07:27:54.292Z,87.80
2018-08-22T07:30:39.808Z,87.90
2018-08-22T07:33:08.027Z,87.70
2018-08-22T07:38:29.343Z,87.60
2018-08-22T07:44:04.099Z,87.90
2018-08-22T07:49:23.627Z,87.50
2018-08-22T07:54:45.780Z,88.00
2018-08-22T08:00:23.930Z,88.80
2018-08-22T08:02:52.119Z,89.20
2018-08-22T08:05:20.344Z,89.20
2018-08-22T08:07:48.501Z,88.80
2018-08-22T08:13:22.410Z,88.00
2018-08-22T08:28:08.907Z,85.80
2018-08-22T08:30:37.229Z,85.50
2018-08-22T08:33:05.359Z,85.30
2018-08-22T08:41:23.404Z,83.50
2018-08-22T08:47:04.392Z,82.80
2018-08-22T08:49:32.715Z,82.50
2018-08-22T09:03:59.167Z,79.10
2018-08-22T09:06:27.292Z,78.40
2018-08-22T09:08:58.768Z,78.80
2018-08-22T09:11:31.980Z,79.00
2018-08-22T09:14:00.168Z,78.30
2018-08-22T09:22:19.875Z,76.90
2018-08-22T09:24:48.099Z,76.60
2018-08-22T09:27:17.346Z,76.20
2018-08-22T09:29:47.377Z,75.90
2018-08-22T09:35:26.265Z,75.20
2018-08-22T09:41:16.606Z,74.60
2018-08-22T09:46:55.765Z,73.20
2018-08-22T09:49:25.470Z,71.70
2018-08-22T09:52:14.127Z,71.30
2018-08-22T09:55:03.561Z,71.80
2018-08-22T09:57:32.206Z,71.40
2018-08-22T10:06:36.470Z,68.80
2018-08-22T10:11:57.308Z,67.30
2018-08-22T10:14:25.485Z,66.30
2018-08-22T10:16:53.673Z,67.50
2018-08-22T10:19:21.841Z,66.50
2018-08-22T10:28:00.592Z,65.00
2018-08-22T10:30:28.782Z,65.10
2018-08-22T10:33:04.966Z,65.30
2018-08-22T10:35:50.433Z,66.00
2018-08-22T10:38:18.611Z,67.10
2018-08-22T10:46:22.459Z,66.00
2018-08-22T10:49:04.784Z,65.30
2018-08-22T10:51:33.709Z,64.50
2018-08-22T10:54:01.897Z,64.30
2018-08-22T11:02:53.869Z,62.80
2018-08-22T11:05:22.058Z,62.50
2018-08-22T11:07:50.484Z,61.80
2018-08-22T11:10:22.054Z,61.70
2018-08-22T11:15:59.345Z,60.90
2018-08-22T11:18:27.487Z,60.50
2018-08-22T11:23:44.148Z,59.10
2018-08-22T11:35:05.785Z,58.60
2018-08-22T11:37:33.997Z,58.40
2018-08-22T11:40:02.197Z,58.40
2018-08-22T11:42:30.378Z,58.40
2018-08-22T11:50:59.847Z,57.90
2018-08-22T11:59:36.987Z,55.10
2018-08-22T12:02:05.217Z,55.70
2018-08-22T12:07:47.419Z,56.20
2018-08-22T12:13:08.617Z,55.40
2018-08-22T12:15:36.800Z,55.10
2018-08-22T12:18:05.029Z,55.10
2018-08-22T12:20:33.220Z,55.10
2018-08-22T12:23:02.408Z,55.00
2018-08-22T12:25:30.648Z,54.30
2018-08-22T12:27:58.866Z,54.50
2018-08-22T12:31:13.090Z,54.50
2018-08-22T12:33:41.273Z,54.50
2018-08-22T12:36:09.436Z,54.20
2018-08-22T12:39:12.274Z,54.20
2018-08-22T12:41:40.468Z,54.30
2018-08-22T12:50:09.287Z,54.40
2018-08-22T12:52:37.489Z,54.30
2018-08-22T12:55:05.673Z,54.00
2018-08-22T12:57:33.883Z,54.30
2018-08-22T13:02:47.472Z,53.80
2018-08-22T13:08:04.414Z,55.70
2018-08-22T13:10:32.585Z,56.50
2018-08-22T13:13:00.783Z,56.90
2018-08-22T13:21:16.236Z,56.80
2018-08-22T13:23:44.456Z,58.80
2018-08-22T13:26:12.660Z,59.00
2018-08-22T13:34:59.430Z,62.20
2018-08-22T13:37:27.620Z,65.30
2018-08-22T13:39:55.796Z,67.50
2018-08-22T13:45:50.511Z,71.30
2018-08-22T13:48:18.704Z,73.10
2018-08-22T13:53:39.799Z,77.20
2018-08-22T14:01:59.534Z,81.40
2018-08-22T14:07:22.910Z,83.70
2018-08-22T14:09:51.111Z,85.00
2018-08-22T14:12:19.279Z,84.90
2018-08-22T14:15:07.171Z,84.30
2018-08-22T14:17:35.329Z,83.40
2018-08-22T14:20:03.564Z,82.50
2018-08-22T14:22:31.821Z,82.10
2018-08-22T14:24:59.944Z,81.70
2018-08-22T14:27:35.201Z,80.70
2018-08-22T14:30:07.419Z,79.20
2018-08-22T14:32:42.195Z,77.50
2018-08-22T14:35:10.425Z,76.20
2018-08-22T14:37:38.604Z,74.80
2018-08-22T14:40:06.841Z,73.80
2018-08-22T14:45:29.288Z,69.60
2018-08-22T14:47:57.475Z,67.40
2018-08-22T14:50:25.678Z,65.20
2018-08-22T14:52:53.876Z,62.40
2018-08-22T14:55:22.083Z,61.20
2018-08-22T14:57:50.308Z,59.80
2018-08-22T15:00:18.520Z,58.50
2018-08-22T15:02:46.841Z,57.90
2018-08-22T15:05:15.006Z,56.60
2018-08-22T15:07:43.184Z,54.80
2018-08-22T15:10:21.948Z,54.40
2018-08-22T15:12:50.221Z,53.10
2018-08-22T15:18:22.763Z,50.20
2018-08-22T15:20:50.988Z,50.30
2018-08-22T15:23:53.015Z,50.00
2018-08-22T15:26:21.205Z,48.90
2018-08-22T15:43:15.695Z,48.50
2018-08-22T15:45:43.996Z,48.30
2018-08-22T15:48:12.209Z,47.60
2018-08-22T15:54:08.924Z,47.40
2018-08-22T15:56:39.779Z,46.00
2018-08-22T15:59:08.382Z,45.50
2018-08-22T16:01:36.551Z,45.00
2018-08-22T16:06:58.278Z,43.80
2018-08-22T16:12:18.631Z,43.50
2018-08-22T16:18:09.049Z,43.60
2018-08-22T16:34:57.473Z,43.50
2018-08-22T16:37:25.672Z,44.30
2018-08-22T16:42:46.369Z,46.50
2018-08-22T16:45:14.572Z,47.40
2018-08-22T16:47:42.747Z,48.40
2018-08-22T16:50:10.968Z,49.10
2018-08-22T16:52:39.148Z,49.50
2018-08-22T16:58:11.993Z,50.00
2018-08-22T17:00:43.293Z,50.50
2018-08-22T17:03:11.714Z,50.90
2018-08-22T17:05:40.113Z,51.40
2018-08-22T17:08:08.587Z,51.60
2018-08-22T17:17:07.156Z,54.00
2018-08-22T17:19:35.841Z,55.20
2018-08-22T17:22:04.014Z,56.10
2018-08-22T17:33:55.631Z,58.80
2018-08-22T17:36:23.894Z,59.40
2018-08-22T17:38:56.930Z,60.00
2018-08-22T17:41:26.726Z,61.00
2018-08-22T17:44:07.926Z,60.70
2018-08-22T17:46:39.460Z,61.10
2018-08-22T17:49:27.100Z,61.50
2018-08-22T17:57:41.408Z,63.10
2018-08-22T18:00:10.031Z,63.80
2018-08-22T18:02:38.413Z,64.60
2018-08-22T18:05:06.837Z,65.30
2018-08-22T18:07:35.319Z,65.90
2018-08-22T18:15:50.742Z,67.30
2018-08-22T18:21:14.192Z,67.90
2018-08-22T18:23:50.760Z,68.10
2018-08-22T18:26:24.589Z,68.40
2018-08-22T18:29:02.186Z,68.50
2018-08-22T18:31:30.443Z,68.80
2018-08-22T18:34:01.983Z,69.10
2018-08-22T18:36:33.227Z,69.30
2018-08-22T18:45:07.358Z,69.90
2018-08-22T18:47:37.834Z,70.00
2018-08-22T18:53:03.471Z,70.30
2018-08-22T19:10:39.724Z,71.20
2018-08-22T19:13:20.275Z,71.30
2018-08-22T19:19:09.070Z,71.50
2018-08-22T19:25:05.322Z,71.50
2018-08-22T19:27:34.267Z,71.60
2018-08-22T19:32:55.064Z,71.70
2018-08-22T19:38:09.648Z,71.70
2018-08-22T19:43:46.157Z,71.60
2018-08-22T19:46:14.378Z,72.10
2018-08-22T19:48:42.597Z,71.80
2018-08-22T19:51:11.318Z,71.90
2018-08-22T20:03:09.984Z,72.70
2018-08-22T20:05:53.053Z,72.90
2018-08-22T20:08:50.740Z,72.90
2018-08-22T20:11:37.854Z,73.10
2018-08-22T20:14:06.905Z,73.10
2018-08-22T20:16:35.129Z,73.20
2018-08-22T20:19:04.793Z,73.40
2018-08-22T20:21:34.308Z,73.50
2018-08-22T20:24:05.186Z,73.60
2018-08-22T20:26:33.761Z,73.70
2018-08-22T20:31:58.588Z,73.90
2018-08-22T20:37:05.600Z,74.40
2018-08-22T20:39:43.280Z,74.60
2018-08-22T20:42:12.404Z,74.70
2018-08-22T20:44:42.184Z,74.80
2018-08-22T20:50:52.394Z,74.90
2018-08-22T20:53:20.605Z,75.10
2018-08-22T20:55:52.424Z,75.40
2018-08-22T20:58:24.875Z,75.40
2018-08-22T21:00:53.088Z,75.60
2018-08-22T21:06:21.680Z,75.70
2018-08-22T21:11:49.159Z,76.10
2018-08-22T21:20:08.625Z,76.50
2018-08-22T21:28:34.077Z,77.10
2018-08-22T21:31:10.746Z,77.30
2018-08-22T21:33:38.960Z,77.40
2018-08-22T21:36:13.994Z,77.60
2018-08-22T21:38:42.204Z,77.80
2018-08-22T21:41:10.427Z,77.90
2018-08-22T21:43:45.627Z,78.10
2018-08-22T21:46:13.869Z,78.20
2018-08-22T21:48:42.068Z,78.20
2018-08-22T21:51:10.269Z,78.30
2018-08-22T21:53:38.489Z,78.40
2018-08-22T21:59:31.167Z,78.60
2018-08-22T22:04:51.559Z,78.80
2018-08-22T22:10:22.045Z,79.20
2018-08-22T22:13:09.946Z,79.70
2018-08-22T22:18:17.106Z,79.10
2018-08-22T22:20:48.527Z,79.20
2018-08-22T22:26:40.189Z,79.40
2018-08-22T22:29:53.318Z,79.40
2018-08-22T22:32:21.541Z,79.60
2018-08-22T22:34:49.777Z,79.80
2018-08-22T22:40:21.013Z,79.90
2018-08-22T22:42:49.526Z,79.90
2018-08-22T22:51:36.681Z,80.30
2018-08-22T22:54:04.891Z,80.50
2018-08-22T22:56:33.104Z,80.50
2018-08-22T22:59:01.320Z,80.70
2018-08-22T23:01:29.597Z,80.70
2018-08-22T23:03:57.818Z,80.80
2018-08-22T23:15:27.484Z,81.00
2018-08-22T23:18:25.938Z,81.10
2018-08-22T23:20:54.104Z,81.10
2018-08-22T23:26:18.621Z,81.20
2018-08-22T23:28:46.873Z,81.40
2018-08-22T23:31:16.903Z,81.30
2018-08-22T23:33:45.153Z,81.50
2018-08-22T23:36:43.098Z,81.60
2018-08-22T23:39:30.091Z,81.70
2018-08-22T23:50:53.973Z,82.30
2018-08-22T23:53:22.258Z,82.30
2018-08-22T23:55:50.879Z,82.40
